Starkweather, North Dakota
Current Conditions -  °F | °C
As of 9:15 PM on Friday 31 Oct 2014 (Local Time) from K9D7 Reporting Station
Clear Clear  
Wind Chill: 19°   Ceiling: Unl
Heat Index: 32°   Visibility: 10mi
Dew Point: 19°   Wind: 22mph
Humidity: 60%   Direction: 160°SSE
Pressure: 30.2"   Gusts: 31mph
Location:  48.45°N, 98.88°W
Report Text: K9D7 010215Z AUTO 16019G27KT 10SM CLR 00/M07 A3020 RMK AO2
Loading
Personal Weather Stations






























Interactive Weather Map
Tropical Storm Tracking
New forecast layout! Learn more

10-Day Weather Forecast

Advertisements
Track Severe Weather on mobile